Time;durP1;ratioP1;P1;durP2;ratioP2;P2;SDS_P1;SDS_P2;PMS_P1;PMS_P2;Temp;Humidity;BMP_temperature;BMP_pressure;BME280_temperature;BME280_humidity;BME280_pressure;Samples;Min_cycle;Max_cycle;Signal;HPM_P1;HPM_P2
2021/03/05 00:02:30;;;;;;;1.90;0.82;;;17.70;60.90;;;;;;10620878;27;20094;-57
2021/03/05 00:07:31;;;;;;;1.70;0.65;;;17.70;60.90;;;;;;10622928;27;20038;-57
2021/03/05 00:12:32;;;;;;;2.10;0.80;;;17.70;60.80;;;;;;10620493;27;20030;-57
2021/03/05 00:17:33;;;;;;;2.95;0.90;;;17.70;60.60;;;;;;10616689;27;20031;-57
2021/03/05 00:22:34;;;;;;;2.55;0.85;;;17.70;60.50;;;;;;10619499;27;20487;-57
2021/03/05 00:27:36;;;;;;;3.13;1.00;;;17.70;60.50;;;;;;10614208;27;20038;-57
2021/03/05 00:32:37;;;;;;;1.23;0.45;;;17.70;60.40;;;;;;10618927;27;20498;-57
2021/03/05 00:37:39;;;;;;;2.10;1.15;;;17.70;60.30;;;;;;10573135;28;20484;-57
2021/03/05 00:42:43;;;;;;;1.55;0.65;;;17.70;60.30;;;;;;10590142;27;20077;-57
2021/03/05 00:47:44;;;;;;;2.50;0.65;;;17.70;60.20;;;;;;10612232;27;20047;-57
2021/03/05 00:52:45;;;;;;;2.42;0.70;;;17.80;60.30;;;;;;10592952;28;20370;-57
2021/03/05 00:57:46;;;;;;;2.03;0.88;;;17.80;60.20;;;;;;10593071;28;20110;-57
2021/03/05 01:02:47;;;;;;;1.13;0.68;;;17.70;60.10;;;;;;10620092;28;20023;-57
2021/03/05 01:07:48;;;;;;;1.88;0.90;;;17.80;60.10;;;;;;10621437;28;20042;-56
2021/03/05 01:12:49;;;;;;;2.20;0.60;;;17.80;60.00;;;;;;10594720;28;20348;-56
2021/03/05 01:17:49;;;;;;;1.52;0.70;;;17.70;59.90;;;;;;10583161;28;20127;-56
2021/03/05 01:22:50;;;;;;;2.78;1.10;;;17.70;60.00;;;;;;10604062;28;20059;-56
2021/03/05 01:27:52;;;;;;;1.80;0.77;;;17.70;60.00;;;;;;10553316;28;20051;-56
2021/03/05 01:32:53;;;;;;;1.45;0.50;;;17.70;60.10;;;;;;10569360;28;20051;-56
2021/03/05 01:37:54;;;;;;;1.20;0.60;;;17.70;59.90;;;;;;10606031;27;20665;-57
2021/03/05 01:42:54;;;;;;;2.47;0.80;;;17.70;59.80;;;;;;10580603;28;20027;-57
2021/03/05 01:48:03;;;;;;;1.13;0.50;;;17.70;59.80;;;;;;10613620;27;20112;-57
2021/03/05 01:53:06;;;;;;;1.48;0.68;;;17.70;59.70;;;;;;10586348;28;20040;-56
2021/03/05 01:58:07;;;;;;;0.80;0.50;;;17.70;59.70;;;;;;10585943;27;20031;-56
2021/03/05 02:03:08;;;;;;;1.88;0.70;;;17.70;59.80;;;;;;10618938;27;20472;-57
2021/03/05 02:08:11;;;;;;;1.30;0.60;;;17.70;59.70;;;;;;10609850;27;20448;-57
2021/03/05 02:13:12;;;;;;;1.17;0.73;;;17.70;59.70;;;;;;10621398;27;20023;-56
2021/03/05 02:18:32;;;;;;;1.20;0.70;;;17.70;59.60;;;;;;10628791;27;20019;-56
2021/03/05 02:24:12;;;;;;;1.73;0.80;;;17.70;59.40;;;;;;10575888;27;20549;-57
2021/03/05 02:30:30;;;;;;;0.85;0.68;;;17.70;59.40;;;;;;10591310;27;20511;-57
2021/03/05 02:35:31;;;;;;;1.00;0.60;;;17.70;59.30;;;;;;10440089;28;20044;-57
2021/03/05 02:40:40;;;;;;;1.42;0.60;;;17.70;59.30;;;;;;10550126;27;20039;-57
2021/03/05 02:45:43;;;;;;;1.35;0.68;;;17.70;59.30;;;;;;10588349;27;20031;-57
2021/03/05 02:50:49;;;;;;;1.23;0.43;;;17.70;59.30;;;;;;10572050;27;20034;-57
2021/03/05 02:55:54;;;;;;;1.27;0.50;;;17.80;59.20;;;;;;10588241;27;20043;-57
2021/03/05 03:00:56;;;;;;;2.30;0.52;;;17.80;59.10;;;;;;10569896;27;20107;-57
2021/03/05 03:05:58;;;;;;;1.08;0.50;;;17.80;59.00;;;;;;10624563;27;20343;-57
2021/03/05 03:11:04;;;;;;;1.23;0.68;;;17.80;58.90;;;;;;10623971;27;20034;-56
2021/03/05 03:16:06;;;;;;;1.20;0.50;;;17.80;58.90;;;;;;10624926;27;20027;-56
2021/03/05 03:21:08;;;;;;;1.35;0.68;;;17.70;58.90;;;;;;10616017;27;20035;-56
2021/03/05 03:26:08;;;;;;;2.55;0.75;;;17.80;58.90;;;;;;10568942;27;20487;-57
2021/03/05 03:31:14;;;;;;;1.48;0.70;;;17.70;58.90;;;;;;10583519;27;20071;-57
2021/03/05 03:36:19;;;;;;;1.65;0.98;;;17.70;58.80;;;;;;10600486;27;20483;-56
2021/03/05 03:41:20;;;;;;;2.35;1.30;;;17.70;58.70;;;;;;10615856;27;20119;-56
2021/03/05 03:46:20;;;;;;;0.90;0.50;;;17.70;58.80;;;;;;10546724;27;20162;-56
2021/03/05 03:51:25;;;;;;;1.48;0.52;;;17.70;58.70;;;;;;10605511;27;20490;-57
2021/03/05 03:56:29;;;;;;;3.13;1.10;;;17.70;58.70;;;;;;10587256;27;20059;-57
2021/03/05 04:01:33;;;;;;;3.50;0.75;;;17.80;58.50;;;;;;10585085;27;20019;-56
2021/03/05 04:06:36;;;;;;;1.20;0.73;;;17.80;58.60;;;;;;10584442;27;20096;-57
2021/03/05 04:11:40;;;;;;;0.95;0.40;;;17.80;58.50;;;;;;10587401;27;20039;-57
2021/03/05 04:16:41;;;;;;;1.30;0.50;;;17.80;58.50;;;;;;10599481;27;20031;-56
2021/03/05 04:21:42;;;;;;;1.15;0.60;;;17.80;58.40;;;;;;10591107;27;20024;-56
2021/03/05 04:26:45;;;;;;;0.82;0.60;;;17.80;58.30;;;;;;10575183;27;20401;-57
2021/03/05 04:31:45;;;;;;;1.42;0.77;;;17.80;58.30;;;;;;10581489;27;20480;-56
2021/03/05 04:36:47;;;;;;;1.05;0.50;;;17.80;58.30;;;;;;10593314;27;20027;-57
2021/03/05 04:41:47;;;;;;;1.40;0.75;;;17.80;58.20;;;;;;10580736;28;20061;-57
2021/03/05 04:46:48;;;;;;;1.17;0.52;;;17.80;58.10;;;;;;10593374;27;20109;-57
2021/03/05 04:51:49;;;;;;;0.75;0.50;;;17.70;58.10;;;;;;10591810;27;20039;-57
2021/03/05 04:56:49;;;;;;;1.38;0.70;;;17.80;58.00;;;;;;10584976;28;20531;-57
2021/03/05 05:01:50;;;;;;;1.45;0.60;;;17.80;58.00;;;;;;10603402;28;20483;-57
2021/03/05 05:06:51;;;;;;;1.73;0.50;;;17.80;58.00;;;;;;10620160;28;20128;-57
2021/03/05 05:11:52;;;;;;;1.25;0.82;;;17.70;57.90;;;;;;10594452;28;20491;-56
2021/03/05 05:16:52;;;;;;;1.13;0.60;;;17.70;57.90;;;;;;10612615;27;20138;-57
2021/03/05 05:21:53;;;;;;;1.30;0.47;;;17.70;57.90;;;;;;10570040;28;20103;-56
2021/03/05 05:26:54;;;;;;;0.52;0.40;;;17.70;57.80;;;;;;10579188;27;20097;-56
2021/03/05 05:31:55;;;;;;;1.25;0.52;;;17.80;57.80;;;;;;10587740;27;20513;-56
2021/03/05 05:36:55;;;;;;;1.80;0.65;;;17.80;57.70;;;;;;10596696;27;20031;-56
2021/03/05 05:41:56;;;;;;;1.63;0.70;;;17.70;57.60;;;;;;10587703;27;20061;-57
2021/03/05 05:47:00;;;;;;;1.63;0.80;;;17.80;57.70;;;;;;10571029;27;20122;-56
2021/03/05 05:52:04;;;;;;;1.08;0.68;;;17.70;57.60;;;;;;10556670;27;20422;-57
2021/03/05 05:57:06;;;;;;;0.75;0.60;;;17.70;57.60;;;;;;10586058;27;20105;-57
2021/03/05 06:02:09;;;;;;;1.55;0.40;;;17.80;57.60;;;;;;10601624;27;20439;-57
2021/03/05 06:07:12;;;;;;;2.08;0.60;;;17.80;57.40;;;;;;10587374;27;20112;-56
2021/03/05 06:12:14;;;;;;;1.02;0.50;;;17.80;57.30;;;;;;10593991;27;20060;-57
2021/03/05 06:17:15;;;;;;;0.75;0.40;;;17.80;57.30;;;;;;10604875;27;20036;-57
2021/03/05 06:22:23;;;;;;;0.98;0.52;;;17.80;57.20;;;;;;10620489;27;20063;-57
2021/03/05 06:27:30;;;;;;;4.93;1.00;;;17.80;57.20;;;;;;10594172;27;20058;-57
2021/03/05 06:32:40;;;;;;;6.97;1.00;;;17.80;57.80;;;;;;10606166;27;20128;-57
2021/03/05 06:37:47;;;;;;;5.30;1.35;;;17.80;58.50;;;;;;10606813;27;20376;-58
2021/03/05 06:42:52;;;;;;;5.75;0.73;;;17.90;59.30;;;;;;10595504;27;20337;-59
2021/03/05 06:48:09;;;;;;;4.15;0.85;;;17.90;59.60;;;;;;10607378;27;20035;-59
2021/03/05 06:53:25;;;;;;;6.38;1.27;;;18.00;59.60;;;;;;10594352;27;20023;-63
2021/03/05 06:58:25;;;;;;;7.97;1.00;;;18.10;59.70;;;;;;10572154;27;20043;-58
2021/03/05 07:03:26;;;;;;;5.40;1.60;;;18.10;59.60;;;;;;10618221;27;20088;-56
2021/03/05 07:08:43;;;;;;;17.58;2.45;;;18.20;59.40;;;;;;10593931;27;20046;-57
2021/03/05 07:13:51;;;;;;;13.32;2.13;;;18.20;59.30;;;;;;10582783;27;20024;-57
2021/03/05 07:18:51;;;;;;;7.35;1.40;;;18.20;58.60;;;;;;10602556;27;20490;-57
2021/03/05 07:23:53;;;;;;;10.98;1.35;;;18.20;58.80;;;;;;10615473;27;20050;-57
2021/03/05 07:28:54;;;;;;;12.98;3.03;;;18.20;58.60;;;;;;10577876;27;20058;-59
2021/03/05 07:34:01;;;;;;;8.65;1.55;;;18.10;59.00;;;;;;10573238;27;20157;-58
2021/03/05 07:39:04;;;;;;;11.98;1.67;;;18.10;58.90;;;;;;10560091;27;20027;-56
2021/03/05 07:44:05;;;;;;;10.00;1.80;;;18.10;59.10;;;;;;10616689;27;20035;-57
2021/03/05 07:49:07;;;;;;;22.15;2.88;;;18.10;58.60;;;;;;10616528;27;20030;-57
2021/03/05 07:54:08;;;;;;;21.27;3.22;;;18.10;58.70;;;;;;10616055;27;20066;-55
2021/03/05 07:59:10;;;;;;;8.43;1.83;;;18.20;58.80;;;;;;10616024;27;20762;-56
2021/03/05 08:04:11;;;;;;;4.68;1.00;;;18.10;58.40;;;;;;10612390;27;20027;-56
2021/03/05 08:09:16;;;;;;;8.18;1.20;;;18.10;58.20;;;;;;10574504;28;20505;-56
2021/03/05 08:14:19;;;;;;;14.40;2.13;;;18.10;58.00;;;;;;10556605;28;20114;-55
2021/03/05 08:19:20;;;;;;;5.25;1.33;;;18.10;57.90;;;;;;10574683;28;20061;-55
2021/03/05 08:24:38;;;;;;;7.07;1.58;;;18.20;57.90;;;;;;10574308;28;20114;-55
2021/03/05 08:30:01;;;;;;;4.50;1.30;;;18.20;57.70;;;;;;10584505;27;20406;-55
2021/03/05 08:35:08;;;;;;;6.35;1.40;;;18.20;57.70;;;;;;10588682;27;20376;-55
2021/03/05 08:40:16;;;;;;;8.95;1.35;;;18.10;57.70;;;;;;10573963;28;20399;-56
2021/03/05 08:45:31;;;;;;;5.00;1.27;;;18.10;57.70;;;;;;10584678;27;20035;-55
2021/03/05 08:50:37;;;;;;;4.68;0.90;;;18.00;57.60;;;;;;10574057;28;20035;-55
2021/03/05 08:55:41;;;;;;;2.92;1.00;;;18.00;57.80;;;;;;10573583;28;20035;-55
2021/03/05 09:00:42;;;;;;;4.18;0.90;;;18.00;57.90;;;;;;10573685;28;20031;-55
2021/03/05 09:05:49;;;;;;;2.40;0.85;;;18.00;58.70;;;;;;10614266;28;20027;-54
2021/03/05 09:10:59;;;;;;;1.52;0.55;;;18.00;58.90;;;;;;10597421;28;20023;-55
2021/03/05 09:16:03;;;;;;;4.40;0.73;;;18.00;58.90;;;;;;10593101;28;20038;-55
2021/03/05 09:21:07;;;;;;;2.85;0.80;;;18.00;58.90;;;;;;10576395;28;20063;-54
2021/03/05 09:26:15;;;;;;;2.45;0.93;;;17.90;59.20;;;;;;10590079;28;20039;-54
2021/03/05 09:31:23;;;;;;;2.40;0.73;;;17.90;59.20;;;;;;10597298;28;20047;-54
2021/03/05 09:36:24;;;;;;;5.38;1.73;;;17.90;59.40;;;;;;10593479;28;20402;-55
2021/03/05 09:41:28;;;;;;;5.63;1.00;;;17.90;59.20;;;;;;10558794;28;20031;-56
2021/03/05 09:46:40;;;;;;;6.97;0.98;;;17.90;58.90;;;;;;10579691;28;20559;-57
2021/03/05 09:51:41;;;;;;;4.90;0.80;;;18.00;58.80;;;;;;10590880;28;20782;-57
2021/03/05 09:56:44;;;;;;;3.60;1.00;;;18.00;58.60;;;;;;10572387;28;20028;-57
2021/03/05 10:01:45;;;;;;;6.53;1.00;;;17.90;58.50;;;;;;10590521;27;20027;-56
2021/03/05 10:06:52;;;;;;;4.43;1.15;;;18.00;58.90;;;;;;10584823;27;20406;-57
2021/03/05 10:11:54;;;;;;;8.50;1.30;;;18.00;59.10;;;;;;10584790;27;20115;-57
2021/03/05 10:17:10;;;;;;;17.05;1.50;;;18.00;59.60;;;;;;10571469;27;20061;-56
2021/03/05 10:22:13;;;;;;;13.80;2.17;;;18.00;60.00;;;;;;10607241;27;20117;-58
2021/03/05 10:27:21;;;;;;;4.72;1.20;;;18.00;60.10;;;;;;10617982;27;20045;-56
2021/03/05 10:32:23;;;;;;;13.43;2.00;;;18.00;60.30;;;;;;10538466;28;20051;-56
2021/03/05 10:37:25;;;;;;;14.57;1.38;;;18.00;60.00;;;;;;10553537;28;20412;-56
2021/03/05 10:42:28;;;;;;;8.38;1.40;;;18.00;59.70;;;;;;10542191;28;20043;-54
2021/03/05 10:47:30;;;;;;;8.73;1.45;;;18.00;59.90;;;;;;10536243;28;20036;-56
2021/03/05 10:52:31;;;;;;;7.22;1.38;;;18.00;58.90;;;;;;10534483;28;20067;-55
2021/03/05 10:57:32;;;;;;;9.00;1.15;;;18.00;58.60;;;;;;10546487;28;20115;-55
2021/03/05 11:02:33;;;;;;;8.07;1.52;;;18.00;58.50;;;;;;10576985;28;20107;-56
2021/03/05 11:07:34;;;;;;;5.90;1.15;;;17.90;58.10;;;;;;10560932;28;20042;-55
2021/03/05 11:12:34;;;;;;;9.27;1.30;;;17.90;58.00;;;;;;10546783;28;20038;-54
2021/03/05 11:17:35;;;;;;;5.35;1.30;;;17.90;58.00;;;;;;10542404;28;20111;-54
2021/03/05 11:22:36;;;;;;;4.95;0.98;;;17.90;58.10;;;;;;10534348;28;20032;-55
2021/03/05 11:27:37;;;;;;;9.35;1.70;;;18.00;58.40;;;;;;10544962;28;20043;-53
2021/03/05 11:32:38;;;;;;;6.47;1.20;;;18.00;58.70;;;;;;10567479;28;20135;-55
2021/03/05 11:37:38;;;;;;;7.75;1.60;;;18.00;58.80;;;;;;10541025;28;20571;-54
2021/03/05 11:42:39;;;;;;;10.93;1.88;;;18.00;59.00;;;;;;10559363;28;20113;-55
2021/03/05 11:47:40;;;;;;;5.82;0.93;;;18.00;59.30;;;;;;10531941;28;20035;-55
2021/03/05 11:52:41;;;;;;;14.40;1.63;;;18.00;59.10;;;;;;10533125;28;20035;-55
2021/03/05 11:57:42;;;;;;;11.90;2.00;;;18.10;59.10;;;;;;10532750;28;20063;-55
2021/03/05 12:02:43;;;;;;;16.08;1.63;;;18.10;59.60;;;;;;10535719;28;20742;-55
2021/03/05 12:07:43;;;;;;;25.20;2.47;;;18.10;60.00;;;;;;10560815;27;20089;-56
2021/03/05 12:12:44;;;;;;;8.23;1.50;;;18.20;60.20;;;;;;10548922;28;20039;-55
2021/03/05 12:17:45;;;;;;;12.13;1.40;;;18.20;60.00;;;;;;10547504;28;20055;-55
2021/03/05 12:22:46;;;;;;;11.82;1.73;;;18.10;59.90;;;;;;10530616;28;20039;-55
2021/03/05 12:27:46;;;;;;;12.90;1.27;;;18.10;60.00;;;;;;10532548;28;20036;-55
2021/03/05 12:32:47;;;;;;;13.73;1.98;;;18.10;60.20;;;;;;10579349;27;20554;-55
2021/03/05 12:37:48;;;;;;;6.38;1.33;;;18.10;60.40;;;;;;10578082;27;20036;-56
2021/03/05 12:42:48;;;;;;;8.32;1.48;;;18.10;60.60;;;;;;10563495;27;20024;-56
2021/03/05 12:47:50;;;;;;;8.73;1.73;;;18.10;60.70;;;;;;10578240;27;20039;-54
2021/03/05 12:52:51;;;;;;;23.27;1.92;;;18.10;60.30;;;;;;10578724;27;20165;-56
2021/03/05 12:57:51;;;;;;;13.70;2.33;;;18.10;60.00;;;;;;10572503;28;20043;-56
2021/03/05 13:02:52;;;;;;;9.80;1.40;;;18.10;60.00;;;;;;10603767;28;20542;-56
2021/03/05 13:07:53;;;;;;;3.78;1.65;;;18.10;60.00;;;;;;10615268;28;20717;-56
2021/03/05 13:12:53;;;;;;;4.50;1.35;;;18.10;60.00;;;;;;10576828;28;20040;-53
2021/03/05 13:17:54;;;;;;;15.68;1.85;;;18.10;60.00;;;;;;10590161;28;20027;-53
2021/03/05 13:22:55;;;;;;;10.95;1.55;;;18.10;59.10;;;;;;10592020;28;20027;-56
2021/03/05 13:27:55;;;;;;;5.47;1.50;;;18.10;59.70;;;;;;10605221;28;20634;-55
2021/03/05 13:32:59;;;;;;;14.32;1.55;;;18.10;59.90;;;;;;10572367;28;20079;-56
2021/03/05 13:38:00;;;;;;;11.45;2.50;;;18.20;60.00;;;;;;10590873;27;20459;-56
2021/03/05 13:43:00;;;;;;;18.13;2.30;;;18.20;60.30;;;;;;10603270;27;20031;-55
2021/03/05 13:48:01;;;;;;;17.27;2.65;;;18.20;60.60;;;;;;10588284;27;20031;-55
2021/03/05 13:53:02;;;;;;;15.45;2.00;;;18.20;60.80;;;;;;10593556;27;20111;-56
2021/03/05 13:58:04;;;;;;;15.75;3.65;;;18.20;60.90;;;;;;10602429;27;20069;-54
2021/03/05 14:03:05;;;;;;;17.40;2.33;;;18.30;60.70;;;;;;10621823;27;20518;-56
2021/03/05 14:08:06;;;;;;;19.73;3.97;;;18.20;60.70;;;;;;10606839;27;20032;-55
2021/03/05 14:13:07;;;;;;;13.57;2.28;;;18.20;60.80;;;;;;10582740;27;20066;-54
2021/03/05 14:18:08;;;;;;;13.75;1.65;;;18.30;61.40;;;;;;10587232;27;20035;-55
2021/03/05 14:23:10;;;;;;;17.60;2.30;;;18.20;61.20;;;;;;10600980;27;20114;-55
2021/03/05 14:28:10;;;;;;;16.63;1.85;;;18.20;61.40;;;;;;10578280;28;20123;-55
2021/03/05 14:33:11;;;;;;;21.00;2.45;;;18.30;61.60;;;;;;10585989;27;20081;-54
2021/03/05 14:38:12;;;;;;;17.50;2.28;;;18.30;61.00;;;;;;10605750;27;20028;-56
2021/03/05 14:43:13;;;;;;;16.92;2.40;;;18.20;60.80;;;;;;10583536;27;20037;-55
2021/03/05 14:48:14;;;;;;;11.25;2.45;;;18.20;61.00;;;;;;10589568;27;20050;-55
2021/03/05 14:53:14;;;;;;;23.08;3.45;;;18.20;60.20;;;;;;10578242;28;20028;-55
2021/03/05 14:58:15;;;;;;;18.08;2.35;;;18.20;60.60;;;;;;10595486;27;20559;-55
2021/03/05 15:03:16;;;;;;;13.90;2.20;;;18.20;59.90;;;;;;10619717;27;20088;-55
2021/03/05 15:08:17;;;;;;;9.40;2.63;;;18.20;60.50;;;;;;10591334;27;20104;-55
2021/03/05 15:13:18;;;;;;;11.43;2.03;;;18.20;60.80;;;;;;10583827;27;20035;-55
2021/03/05 15:18:19;;;;;;;9.93;1.48;;;18.20;60.90;;;;;;10577930;27;20032;-55
2021/03/05 15:23:20;;;;;;;16.63;3.17;;;18.20;61.00;;;;;;10576247;27;20028;-53
2021/03/05 15:28:21;;;;;;;8.60;1.92;;;18.20;61.10;;;;;;10593758;27;20395;-54
2021/03/05 15:33:21;;;;;;;12.32;2.88;;;18.10;60.70;;;;;;10590862;27;20027;-56
2021/03/05 15:38:22;;;;;;;11.10;2.00;;;18.10;60.80;;;;;;10585537;27;20481;-56
2021/03/05 15:43:23;;;;;;;9.20;1.92;;;18.10;61.80;;;;;;10609533;27;20038;-56
2021/03/05 15:48:23;;;;;;;10.63;1.95;;;18.10;61.50;;;;;;10595010;27;20040;-55
2021/03/05 15:53:24;;;;;;;8.40;1.67;;;18.10;61.80;;;;;;10579863;27;20027;-55
2021/03/05 15:58:25;;;;;;;4.65;1.38;;;18.00;61.70;;;;;;10574353;28;20138;-56
2021/03/05 16:03:26;;;;;;;8.63;2.25;;;17.90;61.60;;;;;;10609869;27;20555;-55
2021/03/05 16:08:26;;;;;;;7.22;1.65;;;17.90;63.10;;;;;;10617197;27;20083;-55
2021/03/05 16:13:27;;;;;;;10.98;2.00;;;17.80;64.20;;;;;;10617012;27;20110;-55
2021/03/05 16:18:28;;;;;;;10.45;1.38;;;17.80;64.00;;;;;;10560258;27;20035;-55
2021/03/05 16:23:29;;;;;;;6.00;1.90;;;17.80;62.40;;;;;;10594394;27;20054;-55
2021/03/05 16:28:29;;;;;;;7.10;2.70;;;17.90;65.00;;;;;;10568655;27;20436;-55
2021/03/05 16:33:30;;;;;;;5.85;1.20;;;17.90;62.10;;;;;;10602447;27;20117;-55
2021/03/05 16:38:31;;;;;;;4.35;0.88;;;17.90;59.30;;;;;;10586916;27;20038;-56
2021/03/05 16:43:32;;;;;;;7.97;1.38;;;17.90;58.40;;;;;;10594177;27;20027;-55
2021/03/05 16:48:33;;;;;;;3.70;0.82;;;17.90;58.90;;;;;;10600034;27;20032;-56
2021/03/05 16:53:33;;;;;;;7.82;1.45;;;17.90;59.00;;;;;;10583851;27;20120;-53
2021/03/05 16:58:34;;;;;;;8.27;2.97;;;18.00;57.90;;;;;;10588887;27;20482;-53
2021/03/05 17:03:35;;;;;;;9.88;3.67;;;18.10;57.30;;;;;;10583933;28;20479;-53
2021/03/05 17:08:35;;;;;;;12.70;4.22;;;18.00;60.40;;;;;;10597968;27;20027;-52
2021/03/05 17:13:36;;;;;;;6.55;2.67;;;18.20;63.90;;;;;;10607029;27;20047;-53
2021/03/05 17:18:37;;;;;;;10.48;2.78;;;18.20;62.90;;;;;;10601496;27;20028;-54
2021/03/05 17:23:38;;;;;;;7.50;2.55;;;18.20;63.00;;;;;;10591391;27;20072;-53
2021/03/05 17:28:39;;;;;;;8.30;2.88;;;18.30;63.00;;;;;;10588582;27;20086;-55
2021/03/05 17:33:39;;;;;;;10.15;2.88;;;18.20;63.00;;;;;;10577573;27;20467;-54
2021/03/05 17:38:40;;;;;;;7.88;2.22;;;18.30;63.30;;;;;;10602328;27;20023;-54
2021/03/05 17:43:41;;;;;;;15.32;2.47;;;18.30;62.90;;;;;;10629925;27;20026;-54
2021/03/05 17:48:42;;;;;;;9.73;2.58;;;18.20;63.80;;;;;;10612580;27;20366;-58
2021/03/05 17:53:42;;;;;;;10.98;2.00;;;18.20;63.30;;;;;;10629259;27;20102;-55
2021/03/05 17:58:44;;;;;;;22.88;3.58;;;18.10;61.90;;;;;;10624632;27;20405;-56
2021/03/05 18:03:44;;;;;;;16.42;4.72;;;18.00;62.10;;;;;;10588771;27;20072;-54
2021/03/05 18:08:45;;;;;;;16.50;2.47;;;17.90;62.20;;;;;;10602912;27;20075;-56
2021/03/05 18:13:47;;;;;;;15.15;2.88;;;17.90;61.90;;;;;;10591110;27;20019;-55
2021/03/05 18:18:47;;;;;;;11.40;2.30;;;17.80;61.80;;;;;;10585441;27;20487;-55
2021/03/05 18:23:48;;;;;;;9.85;2.50;;;17.70;62.00;;;;;;10627506;27;20102;-55
2021/03/05 18:28:49;;;;;;;10.45;1.73;;;17.70;62.10;;;;;;10610823;27;20114;-55
2021/03/05 18:33:50;;;;;;;8.13;2.10;;;17.70;62.10;;;;;;10595918;27;20106;-55
2021/03/05 18:38:51;;;;;;;8.68;2.30;;;17.60;62.00;;;;;;10610433;27;20041;-55
2021/03/05 18:43:55;;;;;;;7.50;2.72;;;17.70;61.60;;;;;;10592132;27;20494;-54
2021/03/05 18:48:56;;;;;;;9.05;1.63;;;17.70;61.90;;;;;;10605602;27;20023;-55
2021/03/05 18:53:57;;;;;;;5.63;1.65;;;17.80;61.80;;;;;;10602023;27;20031;-56
2021/03/05 18:58:58;;;;;;;6.38;1.30;;;17.80;61.70;;;;;;10576659;27;20031;-55
2021/03/05 19:03:59;;;;;;;10.05;2.25;;;17.90;62.30;;;;;;10605738;27;20082;-56
2021/03/05 19:08:59;;;;;;;5.28;1.50;;;17.90;61.30;;;;;;10611132;27;20103;-55
2021/03/05 19:14:00;;;;;;;7.05;1.65;;;17.90;61.30;;;;;;10602010;27;20118;-55
2021/03/05 19:19:01;;;;;;;6.07;1.48;;;18.00;61.20;;;;;;10591837;27;20039;-54
2021/03/05 19:24:03;;;;;;;5.03;1.02;;;18.00;61.20;;;;;;10602535;27;20059;-55
2021/03/05 19:29:04;;;;;;;5.07;1.25;;;18.00;60.90;;;;;;10607233;27;20039;-55
2021/03/05 19:34:05;;;;;;;4.55;1.50;;;18.00;60.40;;;;;;10589055;27;20034;-53
2021/03/05 19:39:06;;;;;;;9.13;1.42;;;18.00;60.10;;;;;;10594417;27;20110;-54
2021/03/05 19:44:07;;;;;;;8.10;1.48;;;18.00;60.30;;;;;;10582951;27;20081;-54
2021/03/05 19:49:09;;;;;;;7.00;1.30;;;18.00;60.40;;;;;;10608530;27;20077;-54
2021/03/05 19:54:09;;;;;;;4.53;1.48;;;18.00;60.70;;;;;;10598752;27;20483;-54
2021/03/05 19:59:10;;;;;;;2.72;0.90;;;18.00;60.70;;;;;;10596913;27;20023;-54
2021/03/05 20:04:11;;;;;;;7.70;0.98;;;18.10;60.70;;;;;;10583163;27;20121;-54
2021/03/05 20:09:12;;;;;;;3.40;1.42;;;18.10;60.60;;;;;;10581242;27;20042;-54
2021/03/05 20:14:12;;;;;;;5.00;1.25;;;18.10;60.70;;;;;;10582030;28;20391;-53
2021/03/05 20:19:13;;;;;;;3.30;0.93;;;18.00;61.00;;;;;;10592270;27;20398;-55
2021/03/05 20:24:14;;;;;;;5.05;1.67;;;18.00;61.00;;;;;;10599161;27;20072;-54
2021/03/05 20:29:16;;;;;;;2.63;1.02;;;18.00;60.80;;;;;;10603996;27;20410;-55
2021/03/05 20:34:18;;;;;;;6.90;0.95;;;18.00;60.60;;;;;;10564570;28;20047;-55
2021/03/05 20:39:19;;;;;;;4.28;1.08;;;17.90;60.40;;;;;;10615074;27;20042;-55
2021/03/05 20:44:19;;;;;;;1.38;0.63;;;17.80;60.40;;;;;;10558867;28;20032;-55
2021/03/05 20:49:20;;;;;;;3.47;1.35;;;17.80;60.30;;;;;;10585331;27;20023;-55
2021/03/05 20:54:21;;;;;;;5.10;1.20;;;17.70;60.30;;;;;;10579379;27;20067;-55
2021/03/05 20:59:22;;;;;;;2.88;1.10;;;17.70;60.20;;;;;;10614956;27;20055;-55
2021/03/05 21:04:23;;;;;;;2.97;0.70;;;17.60;60.20;;;;;;10618924;28;20035;-55
2021/03/05 21:09:24;;;;;;;4.13;1.00;;;17.60;60.20;;;;;;10613153;28;20034;-55
2021/03/05 21:14:25;;;;;;;2.13;0.80;;;17.50;60.20;;;;;;10603868;28;20074;-55
2021/03/05 21:19:26;;;;;;;1.85;0.65;;;17.50;60.20;;;;;;10612564;28;20031;-55
2021/03/05 21:24:26;;;;;;;2.00;0.70;;;17.40;60.10;;;;;;10620283;28;20031;-55
2021/03/05 21:29:27;;;;;;;2.80;1.13;;;17.40;59.80;;;;;;10604270;28;20044;-55
2021/03/05 21:34:28;;;;;;;2.00;0.93;;;17.40;59.80;;;;;;10599650;28;20114;-54
2021/03/05 21:39:29;;;;;;;2.45;0.95;;;17.40;59.70;;;;;;10594883;28;20454;-55
2021/03/05 21:44:30;;;;;;;1.40;0.60;;;17.40;59.50;;;;;;10621314;28;20063;-55
2021/03/05 21:49:31;;;;;;;4.20;0.93;;;17.50;59.30;;;;;;10604413;28;20063;-55
2021/03/05 21:54:32;;;;;;;1.70;0.85;;;17.50;59.20;;;;;;10585979;27;20069;-55
2021/03/05 21:59:33;;;;;;;4.95;0.98;;;17.50;59.00;;;;;;10621089;27;20455;-55
2021/03/05 22:04:35;;;;;;;2.58;1.08;;;17.60;58.80;;;;;;10628459;27;20041;-55
2021/03/05 22:09:35;;;;;;;2.95;0.90;;;17.60;58.60;;;;;;10620922;27;20028;-55
2021/03/05 22:14:37;;;;;;;3.35;1.20;;;17.60;58.60;;;;;;10586563;27;20050;-55
2021/03/05 22:19:37;;;;;;;5.35;0.80;;;17.60;58.40;;;;;;10586548;27;20019;-55
2021/03/05 22:24:38;;;;;;;1.02;0.65;;;17.60;58.30;;;;;;10594635;27;20121;-55
2021/03/05 22:29:39;;;;;;;2.20;1.48;;;17.60;58.20;;;;;;10604186;27;20047;-55
2021/03/05 22:34:39;;;;;;;1.60;0.80;;;17.60;58.20;;;;;;10594175;27;20040;-55
2021/03/05 22:39:40;;;;;;;3.13;1.10;;;17.60;58.10;;;;;;10625348;27;20027;-55
2021/03/05 22:44:41;;;;;;;1.88;1.00;;;17.60;58.00;;;;;;10600900;27;20027;-55
2021/03/05 22:49:42;;;;;;;2.10;0.90;;;17.60;57.90;;;;;;10601523;27;20051;-55
2021/03/05 22:54:42;;;;;;;1.85;1.08;;;17.60;57.90;;;;;;10612834;27;20024;-55
2021/03/05 22:59:43;;;;;;;0.90;0.70;;;17.60;57.70;;;;;;10591067;27;20438;-55
2021/03/05 23:04:44;;;;;;;1.27;0.80;;;17.60;57.70;;;;;;10585977;27;20063;-55
2021/03/05 23:09:44;;;;;;;1.63;0.82;;;17.60;57.60;;;;;;10617460;27;20031;-54
2021/03/05 23:14:45;;;;;;;2.13;0.98;;;17.60;57.50;;;;;;10577141;27;20458;-55
2021/03/05 23:19:46;;;;;;;2.20;0.90;;;17.60;57.40;;;;;;10599725;27;20103;-55
2021/03/05 23:24:46;;;;;;;2.80;1.17;;;17.60;57.40;;;;;;10592141;27;20024;-55
2021/03/05 23:29:47;;;;;;;2.13;1.00;;;17.60;57.30;;;;;;10617851;27;20082;-55
2021/03/05 23:34:48;;;;;;;2.38;1.17;;;17.60;57.30;;;;;;10591394;27;20102;-55
2021/03/05 23:39:48;;;;;;;2.65;0.85;;;17.60;57.20;;;;;;10616614;27;20059;-55
2021/03/05 23:44:49;;;;;;;3.35;1.10;;;17.60;57.10;;;;;;10584777;27;20035;-55
2021/03/05 23:49:50;;;;;;;1.95;0.82;;;17.60;57.10;;;;;;10598576;27;20134;-55
2021/03/05 23:54:50;;;;;;;1.80;0.80;;;17.60;57.00;;;;;;10589122;27;20644;-55
2021/03/05 23:59:51;;;;;;;2.08;0.95;;;17.60;57.00;;;;;;10606375;27;20046;-55
